Crossville, Tennessee
Current Conditions -  °F | °C
As of 4:29 AM on Tuesday 27 Jan 2015 (Local Time) from KCSV Reporting Station
Haze Haze  
Wind Chill: -4°   Ceiling: 600
Heat Index: -1°   Visibility: 4mi
Dew Point: -2°   Wind: 5mph
Humidity: 92%   Direction: 270°W
Pressure: 29.84"   Gusts: NA
Location:  35.95°N, 85.03°W
Report Text: KCSV 271029Z AUTO 27004KT 4SM BR BKN006 OVC012 M01/M02 A2984 RMK AO2 I1000 T10111022
Loading
Personal Weather Stations






























Interactive Weather Map New forecast layout! Learn more

10-Day Weather Forecast

Advertisements
Track Severe Weather on mobile